Time;durP1;ratioP1;P1;durP2;ratioP2;P2;SDS_P1;SDS_P2;PMS_P1;PMS_P2;Temp;Humidity;BMP_temperature;BMP_pressure;BME280_temperature;BME280_humidity;BME280_pressure;Samples;Min_cycle;Max_cycle;Signal;HPM_P1;HPM_P2
2022/06/26 00:00:33;;;;;;;11.43;10.20;;;19.50;99.90;;;;;;4806452;29;20046;-65
2022/06/26 00:02:59;;;;;;;12.52;10.55;;;19.40;99.90;;;;;;4822227;29;20145;-65
2022/06/26 00:05:25;;;;;;;12.70;11.38;;;19.40;99.90;;;;;;4822572;29;20086;-64
2022/06/26 00:07:50;;;;;;;13.07;11.55;;;19.40;99.90;;;;;;4790905;29;20059;-64
2022/06/26 00:10:16;;;;;;;13.77;11.85;;;19.40;99.90;;;;;;4806415;29;20046;-65
2022/06/26 00:12:42;;;;;;;13.65;12.23;;;19.40;99.90;;;;;;4805743;29;20098;-65
2022/06/26 00:15:08;;;;;;;14.20;12.70;;;19.30;99.90;;;;;;4821483;29;20054;-65
2022/06/26 00:17:34;;;;;;;19.02;13.27;;;19.40;99.90;;;;;;4822403;29;20055;-64
2022/06/26 00:19:59;;;;;;;14.82;12.90;;;19.30;99.90;;;;;;4821952;29;20110;-64
2022/06/26 00:22:26;;;;;;;14.80;13.18;;;19.30;99.90;;;;;;4808558;29;20062;-65
2022/06/26 00:24:52;;;;;;;17.10;14.45;;;19.30;99.90;;;;;;4825209;29;20412;-66
2022/06/26 00:27:19;;;;;;;14.32;12.82;;;19.20;99.90;;;;;;4825542;29;20046;-66
2022/06/26 00:29:45;;;;;;;14.93;12.85;;;19.20;99.90;;;;;;4804776;29;20063;-65
2022/06/26 00:32:11;;;;;;;15.55;13.25;;;19.20;99.90;;;;;;4807333;29;20115;-64
2022/06/26 00:34:37;;;;;;;14.20;12.40;;;19.20;99.90;;;;;;4807301;29;20042;-65
2022/06/26 00:37:03;;;;;;;15.02;12.95;;;19.20;99.90;;;;;;4807047;29;20047;-64
2022/06/26 00:39:28;;;;;;;14.40;12.90;;;19.20;99.90;;;;;;4807374;29;20574;-64
2022/06/26 00:41:54;;;;;;;13.93;12.50;;;19.20;99.90;;;;;;4807064;29;20050;-65
2022/06/26 00:44:22;;;;;;;13.93;12.52;;;19.10;99.90;;;;;;4806169;29;20063;-64
2022/06/26 00:46:48;;;;;;;15.23;13.65;;;19.10;99.90;;;;;;4806757;29;20061;-65
2022/06/26 00:49:14;;;;;;;15.75;13.30;;;19.10;99.90;;;;;;4807242;29;20054;-65
2022/06/26 00:51:44;;;;;;;17.10;12.40;;;19.10;99.90;;;;;;4806177;29;20062;-65
2022/06/26 00:54:10;;;;;;;15.30;13.05;;;19.10;99.90;;;;;;4807268;29;20090;-65
2022/06/26 00:56:38;;;;;;;14.13;12.63;;;19.00;99.90;;;;;;4806900;29;20043;-65
2022/06/26 00:59:05;;;;;;;14.30;12.30;;;19.00;99.90;;;;;;4805441;29;20490;-65
2022/06/26 01:01:31;;;;;;;13.98;12.57;;;19.00;99.90;;;;;;4805632;29;20097;-65
2022/06/26 01:03:57;;;;;;;18.20;12.82;;;19.00;99.90;;;;;;4806259;29;20051;-65
2022/06/26 01:06:23;;;;;;;14.05;12.63;;;19.00;99.90;;;;;;4805808;29;20142;-65
2022/06/26 01:08:49;;;;;;;14.48;13.05;;;19.00;99.90;;;;;;4805430;29;20146;-64
2022/06/26 01:11:18;;;;;;;14.85;13.05;;;19.00;99.90;;;;;;4806842;29;20055;-64
2022/06/26 01:13:48;;;;;;;14.88;12.70;;;18.90;99.90;;;;;;4806780;29;20047;-65
2022/06/26 01:16:17;;;;;;;15.27;12.70;;;19.00;99.90;;;;;;4805367;29;20050;-65
2022/06/26 01:18:44;;;;;;;23.73;17.83;;;18.90;99.90;;;;;;4806692;29;20138;-65
2022/06/26 01:21:10;;;;;;;23.35;18.02;;;18.90;99.90;;;;;;4806189;29;20462;-64
2022/06/26 01:23:36;;;;;;;19.30;17.23;;;18.80;99.90;;;;;;4806649;29;20406;-65
2022/06/26 01:26:02;;;;;;;21.02;16.77;;;18.80;99.90;;;;;;4805141;29;20379;-65
2022/06/26 01:28:28;;;;;;;21.77;15.55;;;18.80;99.90;;;;;;4812931;29;20065;-65
2022/06/26 01:30:54;;;;;;;18.15;15.88;;;18.80;99.90;;;;;;4824235;29;20061;-65
2022/06/26 01:33:20;;;;;;;20.17;15.82;;;18.80;99.90;;;;;;4807649;29;20046;-64
2022/06/26 01:35:46;;;;;;;16.52;14.38;;;18.90;99.90;;;;;;4808183;29;20076;-65
2022/06/26 01:38:23;;;;;;;18.20;14.82;;;18.90;99.90;;;;;;4808066;29;20059;-65
2022/06/26 01:40:51;;;;;;;18.33;14.55;;;18.90;99.90;;;;;;4824557;29;20055;-66
2022/06/26 01:43:27;;;;;;;16.45;13.65;;;19.00;99.90;;;;;;4824210;29;20047;-65
2022/06/26 01:45:54;;;;;;;16.10;13.90;;;19.00;99.90;;;;;;4823941;29;20064;-67
2022/06/26 01:48:21;;;;;;;16.58;14.00;;;19.10;99.90;;;;;;4824270;29;20416;-65
2022/06/26 01:50:47;;;;;;;14.98;12.80;;;19.10;99.90;;;;;;4808230;29;20079;-64
2022/06/26 01:53:14;;;;;;;18.33;13.50;;;19.10;99.90;;;;;;4823895;29;20392;-65
2022/06/26 01:55:41;;;;;;;14.65;12.93;;;19.10;99.90;;;;;;4807862;29;20130;-64
2022/06/26 01:58:07;;;;;;;16.55;12.68;;;19.10;99.90;;;;;;4823578;29;20522;-64
2022/06/26 02:00:37;;;;;;;16.63;12.50;;;19.10;99.90;;;;;;4824280;29;20595;-65
2022/06/26 02:03:03;;;;;;;14.38;11.63;;;19.00;99.90;;;;;;4823735;29;20054;-65
2022/06/26 02:05:29;;;;;;;14.57;11.07;;;19.00;99.90;;;;;;4823952;29;20050;-66
2022/06/26 02:07:55;;;;;;;17.52;10.98;;;19.00;99.90;;;;;;4823371;29;20382;-66
2022/06/26 02:15:54;;;;;;;14.98;10.63;;;18.90;99.90;;;;;;4823895;29;20061;-65
2022/06/26 02:18:20;;;;;;;11.55;8.80;;;18.90;99.90;;;;;;4807409;29;20042;-66
2022/06/26 02:20:46;;;;;;;10.65;8.18;;;18.90;99.90;;;;;;4823740;29;20084;-65
2022/06/26 02:23:13;;;;;;;10.13;8.30;;;18.90;99.90;;;;;;4807120;29;20132;-64
2022/06/26 02:25:40;;;;;;;13.48;8.77;;;18.90;99.90;;;;;;4823790;29;20445;-64
2022/06/26 02:28:06;;;;;;;12.73;8.40;;;18.90;99.90;;;;;;4806971;29;20417;-64
2022/06/26 02:30:33;;;;;;;10.73;7.82;;;18.90;99.90;;;;;;4807315;29;20073;-64
2022/06/26 02:32:59;;;;;;;10.73;7.80;;;18.90;99.90;;;;;;4823235;29;20545;-67
2022/06/26 02:35:26;;;;;;;14.82;9.30;;;18.90;99.90;;;;;;4807187;29;20133;-65
2022/06/26 02:37:54;;;;;;;14.40;9.52;;;19.00;99.90;;;;;;4807285;29;20058;-65
2022/06/26 02:40:21;;;;;;;14.32;9.10;;;19.00;99.90;;;;;;4792004;29;20162;-65
2022/06/26 02:42:47;;;;;;;11.93;8.80;;;18.90;99.90;;;;;;4823583;29;20082;-65
2022/06/26 02:45:13;;;;;;;13.13;8.65;;;18.90;99.90;;;;;;4806919;29;20133;-65
2022/06/26 02:47:40;;;;;;;13.48;8.80;;;18.80;99.90;;;;;;4823045;29;20113;-65
2022/06/26 02:50:07;;;;;;;12.65;8.52;;;18.80;99.90;;;;;;4822931;29;20054;-65
2022/06/26 02:52:33;;;;;;;13.82;9.52;;;18.80;99.90;;;;;;4823182;29;20141;-65
2022/06/26 02:54:58;;;;;;;14.35;9.20;;;18.70;99.90;;;;;;4823177;29;20057;-65
2022/06/26 02:57:24;;;;;;;13.70;9.32;;;18.70;99.90;;;;;;4822872;29;20039;-65
2022/06/26 02:59:50;;;;;;;15.15;7.68;;;18.70;99.90;;;;;;4823399;29;20061;-65
2022/06/26 03:02:15;;;;;;;9.57;7.60;;;18.60;99.90;;;;;;4822849;29;20058;-65
2022/06/26 03:04:42;;;;;;;10.00;7.57;;;18.50;99.90;;;;;;4823166;29;20137;-65
2022/06/26 03:07:08;;;;;;;11.75;8.15;;;18.50;99.90;;;;;;4806462;29;20493;-65
2022/06/26 03:09:34;;;;;;;9.63;6.57;;;18.40;99.90;;;;;;4806913;29;20076;-66
2022/06/26 03:12:00;;;;;;;8.70;6.35;;;18.40;99.90;;;;;;4806921;29;20103;-66
2022/06/26 03:14:26;;;;;;;9.27;6.15;;;18.40;99.90;;;;;;4822580;29;20451;-64
2022/06/26 03:16:51;;;;;;;8.40;5.80;;;18.30;99.90;;;;;;4823068;29;20054;-65
2022/06/26 03:19:17;;;;;;;9.00;5.65;;;18.30;99.90;;;;;;4822541;29;20612;-64
2022/06/26 03:21:43;;;;;;;8.18;5.63;;;18.20;99.90;;;;;;4823091;29;20401;-65
2022/06/26 03:24:08;;;;;;;7.35;4.85;;;18.30;99.90;;;;;;4806394;29;20046;-64
2022/06/26 03:26:36;;;;;;;7.80;5.25;;;18.20;99.90;;;;;;4806721;29;20134;-65
2022/06/26 03:29:05;;;;;;;8.60;5.35;;;18.20;99.90;;;;;;4806060;29;20564;-65
2022/06/26 03:31:32;;;;;;;7.82;4.57;;;18.30;99.90;;;;;;4791775;29;20054;-66
2022/06/26 03:33:58;;;;;;;6.07;4.60;;;18.20;99.90;;;;;;4822847;29;20043;-65
2022/06/26 03:36:24;;;;;;;6.28;4.63;;;18.30;99.90;;;;;;4806164;29;20053;-65
2022/06/26 03:38:51;;;;;;;6.85;4.25;;;18.30;99.90;;;;;;4806481;29;20141;-64
2022/06/26 03:41:17;;;;;;;6.03;4.18;;;18.20;99.90;;;;;;4792042;29;20058;-65
2022/06/26 03:43:43;;;;;;;5.88;4.20;;;18.20;99.90;;;;;;4822531;29;20513;-65
2022/06/26 03:46:08;;;;;;;8.55;4.78;;;18.20;99.90;;;;;;4822477;29;20093;-65
2022/06/26 03:48:34;;;;;;;7.15;4.45;;;18.20;99.90;;;;;;4822857;29;20146;-66
2022/06/26 03:51:01;;;;;;;6.25;4.07;;;18.20;99.90;;;;;;4806747;29;20411;-65
2022/06/26 03:53:28;;;;;;;5.75;4.10;;;18.20;99.90;;;;;;4806153;29;20103;-66
2022/06/26 03:55:54;;;;;;;6.55;4.10;;;18.20;99.90;;;;;;4823119;29;20208;-65
2022/06/26 03:58:20;;;;;;;6.80;4.20;;;18.20;99.90;;;;;;4825709;29;20510;-66
2022/06/26 04:00:46;;;;;;;7.20;4.28;;;18.20;99.90;;;;;;4810166;29;20171;-66
2022/06/26 04:03:11;;;;;;;7.07;4.13;;;18.20;99.90;;;;;;4825776;29;20138;-64
2022/06/26 04:05:37;;;;;;;6.50;3.80;;;18.20;99.90;;;;;;4809826;29;20129;-67
2022/06/26 04:08:04;;;;;;;5.72;3.75;;;18.20;99.90;;;;;;4809998;29;20050;-64
2022/06/26 04:10:30;;;;;;;5.13;3.53;;;18.20;99.90;;;;;;4825179;29;20489;-65
2022/06/26 04:13:00;;;;;;;7.20;3.67;;;18.20;99.90;;;;;;4825862;29;20054;-66
2022/06/26 04:15:28;;;;;;;6.68;3.83;;;18.20;99.90;;;;;;4809312;29;20053;-65
2022/06/26 04:17:54;;;;;;;5.75;3.40;;;18.10;99.90;;;;;;4825608;29;20094;-65
2022/06/26 04:20:20;;;;;;;5.93;4.10;;;18.10;99.90;;;;;;4794398;29;20522;-66
2022/06/26 04:23:03;;;;;;;5.50;3.63;;;18.10;99.90;;;;;;4825783;29;20093;-66
2022/06/26 04:25:30;;;;;;;9.20;3.35;;;18.10;99.90;;;;;;4824331;29;20053;-65
2022/06/26 04:27:57;;;;;;;6.88;3.83;;;18.10;99.90;;;;;;4825446;29;20439;-65
2022/06/26 04:30:23;;;;;;;5.82;3.40;;;18.10;99.90;;;;;;4808867;29;20062;-65
2022/06/26 04:32:49;;;;;;;4.68;3.10;;;18.10;99.90;;;;;;4825416;29;20050;-66
2022/06/26 04:35:15;;;;;;;4.65;3.33;;;18.10;99.90;;;;;;4825285;29;20133;-67
2022/06/26 04:37:41;;;;;;;5.07;3.75;;;18.10;99.90;;;;;;4825461;29;20132;-65
2022/06/26 04:40:09;;;;;;;5.75;3.50;;;18.20;99.90;;;;;;4809239;29;20480;-65
2022/06/26 04:42:35;;;;;;;5.15;3.47;;;18.20;99.90;;;;;;4824856;29;20189;-65
2022/06/26 04:45:01;;;;;;;4.75;3.20;;;18.20;99.90;;;;;;4825268;29;20488;-65
2022/06/26 04:47:27;;;;;;;4.20;3.47;;;18.20;99.90;;;;;;4808688;29;20132;-64
2022/06/26 04:49:53;;;;;;;5.95;3.70;;;18.20;99.90;;;;;;4825636;29;20138;-65
2022/06/26 04:52:18;;;;;;;5.38;3.60;;;18.20;99.90;;;;;;4824804;29;20046;-65
2022/06/26 04:54:44;;;;;;;5.55;3.70;;;18.20;99.90;;;;;;4825259;29;20055;-66
2022/06/26 04:57:10;;;;;;;6.45;4.00;;;18.20;99.90;;;;;;4825025;29;20111;-64
2022/06/26 04:59:36;;;;;;;6.53;3.70;;;18.20;99.90;;;;;;4824764;29;20264;-64
2022/06/26 05:02:04;;;;;;;4.80;3.83;;;18.30;99.90;;;;;;4809060;29;20054;-65
2022/06/26 05:04:30;;;;;;;6.70;4.25;;;18.30;99.90;;;;;;4793498;29;20054;-65
2022/06/26 05:06:55;;;;;;;7.13;4.32;;;18.30;99.90;;;;;;4808298;29;20054;-66
2022/06/26 05:09:22;;;;;;;5.03;4.22;;;18.40;99.90;;;;;;4823444;29;20046;-65
2022/06/26 05:11:48;;;;;;;5.72;4.35;;;18.40;99.90;;;;;;4808334;29;20421;-65
2022/06/26 05:14:14;;;;;;;6.05;4.32;;;18.40;99.90;;;;;;4793097;29;20093;-67
2022/06/26 05:16:40;;;;;;;8.65;4.90;;;18.50;99.90;;;;;;4807618;29;20434;-67
2022/06/26 05:19:05;;;;;;;6.03;4.80;;;18.50;99.90;;;;;;4808508;29;20118;-66
2022/06/26 05:21:31;;;;;;;5.40;4.30;;;18.50;99.90;;;;;;4824263;29;20082;-65
2022/06/26 05:23:57;;;;;;;6.65;4.57;;;18.60;99.90;;;;;;4793470;29;20066;-64
2022/06/26 05:26:23;;;;;;;7.32;4.25;;;18.70;99.90;;;;;;4823679;29;20493;-66
2022/06/26 05:28:49;;;;;;;6.72;4.47;;;18.70;99.90;;;;;;4807914;29;20417;-64
2022/06/26 05:31:15;;;;;;;6.03;4.32;;;18.70;99.90;;;;;;4823285;29;20062;-64
2022/06/26 05:33:42;;;;;;;6.75;4.65;;;18.80;99.90;;;;;;4807361;29;20648;-65
2022/06/26 05:36:08;;;;;;;5.32;4.38;;;18.90;99.90;;;;;;4824118;29;20050;-65
2022/06/26 05:38:34;;;;;;;5.38;4.40;;;19.00;99.90;;;;;;4807489;29;20062;-65
2022/06/26 05:41:00;;;;;;;6.93;5.20;;;19.10;99.90;;;;;;4824221;29;20061;-65
2022/06/26 05:43:26;;;;;;;7.53;4.90;;;19.10;99.90;;;;;;4807437;29;20054;-65
2022/06/26 05:45:52;;;;;;;6.63;5.00;;;19.00;99.90;;;;;;4807952;29;20054;-65
2022/06/26 05:48:18;;;;;;;6.85;4.35;;;19.00;99.90;;;;;;4824112;29;20214;-65
2022/06/26 05:50:44;;;;;;;7.72;5.18;;;18.90;99.90;;;;;;4807554;29;20071;-64
2022/06/26 05:53:09;;;;;;;7.13;5.55;;;18.90;99.90;;;;;;4824101;29;20050;-66
2022/06/26 05:55:36;;;;;;;6.70;5.40;;;18.80;99.90;;;;;;4823770;29;20071;-66
2022/06/26 05:58:02;;;;;;;9.18;5.68;;;18.90;99.90;;;;;;4793085;29;20046;-66
2022/06/26 06:00:28;;;;;;;7.13;5.57;;;19.00;99.90;;;;;;4823790;29;20089;-65
2022/06/26 06:02:54;;;;;;;7.97;6.47;;;19.10;99.90;;;;;;4824079;29;20096;-65
2022/06/26 06:05:19;;;;;;;8.43;5.80;;;19.20;99.90;;;;;;4823607;29;20054;-66
2022/06/26 06:07:45;;;;;;;8.32;5.57;;;19.20;99.90;;;;;;4823579;29;20146;-66
2022/06/26 06:10:11;;;;;;;8.30;6.53;;;19.20;99.90;;;;;;4823982;29;20131;-66
2022/06/26 06:12:37;;;;;;;7.38;6.10;;;19.20;99.90;;;;;;4791518;29;20093;-65
2022/06/26 06:15:03;;;;;;;8.45;6.47;;;19.20;99.90;;;;;;4823315;29;20086;-65
2022/06/26 06:17:35;;;;;;;9.65;7.75;;;19.20;99.90;;;;;;4823465;29;20051;-65
2022/06/26 06:20:03;;;;;;;12.15;8.30;;;19.10;99.90;;;;;;4823338;29;20054;-65
2022/06/26 06:22:30;;;;;;;9.48;8.18;;;19.00;99.90;;;;;;4823112;29;20061;-66
2022/06/26 06:24:55;;;;;;;10.52;8.13;;;19.00;99.90;;;;;;4807167;29;20057;-65
2022/06/26 06:27:21;;;;;;;10.95;8.07;;;18.90;99.90;;;;;;4823700;29;20050;-66
2022/06/26 06:29:47;;;;;;;11.98;8.32;;;18.90;99.90;;;;;;4823482;29;20474;-67
2022/06/26 06:32:12;;;;;;;11.90;8.90;;;19.00;99.90;;;;;;4823583;29;20144;-65
2022/06/26 06:34:38;;;;;;;9.90;8.35;;;19.00;99.90;;;;;;4791658;29;20046;-66
2022/06/26 06:37:04;;;;;;;9.45;8.35;;;19.00;99.90;;;;;;4823659;29;20062;-65
2022/06/26 06:39:29;;;;;;;11.32;9.15;;;19.10;99.90;;;;;;4823261;29;20106;-68
2022/06/26 06:41:55;;;;;;;12.48;9.77;;;19.10;99.90;;;;;;4823479;29;20189;-66
2022/06/26 06:44:21;;;;;;;10.52;8.80;;;19.20;99.90;;;;;;4807028;29;20107;-66
2022/06/26 06:46:46;;;;;;;13.77;9.77;;;19.20;99.90;;;;;;4822858;29;20057;-66
2022/06/26 06:49:12;;;;;;;11.88;10.50;;;19.30;99.90;;;;;;4823190;29;20050;-65
2022/06/26 06:51:38;;;;;;;11.10;9.80;;;19.40;99.90;;;;;;4822700;29;20061;-66
2022/06/26 06:54:03;;;;;;;11.95;10.75;;;19.50;99.90;;;;;;4806790;29;20049;-65
2022/06/26 06:56:29;;;;;;;13.25;11.07;;;19.70;99.90;;;;;;4822788;29;20043;-68
2022/06/26 06:58:55;;;;;;;14.07;11.43;;;19.80;99.90;;;;;;4806681;29;20081;-65
2022/06/26 07:01:20;;;;;;;12.40;10.93;;;19.80;99.90;;;;;;4823347;29;20466;-65
2022/06/26 07:03:46;;;;;;;12.90;11.52;;;19.90;99.90;;;;;;4822822;29;20054;-65
2022/06/26 07:06:12;;;;;;;13.45;11.43;;;19.80;99.90;;;;;;4806432;29;20119;-65
2022/06/26 07:08:38;;;;;;;14.70;11.93;;;19.80;99.90;;;;;;4822700;29;20046;-65
2022/06/26 07:11:03;;;;;;;14.25;11.85;;;19.80;99.90;;;;;;4806724;29;20074;-65
2022/06/26 07:13:29;;;;;;;13.60;12.20;;;19.90;99.90;;;;;;4806570;29;20050;-65
2022/06/26 07:15:55;;;;;;;13.48;12.18;;;19.90;99.90;;;;;;4806032;29;20137;-65
2022/06/26 07:18:22;;;;;;;13.70;12.15;;;20.30;99.90;;;;;;4806742;29;20556;-66
2022/06/26 07:20:47;;;;;;;12.48;11.18;;;20.80;99.90;;;;;;4822501;29;20115;-66
2022/06/26 07:23:13;;;;;;;13.40;11.35;;;21.70;99.90;;;;;;4806338;29;20054;-65
2022/06/26 07:25:39;;;;;;;12.70;11.10;;;22.50;99.90;;;;;;4806032;29;20115;-65
2022/06/26 07:28:04;;;;;;;12.70;11.50;;;22.90;99.90;;;;;;4805819;29;20058;-64
2022/06/26 07:30:31;;;;;;;12.70;11.25;;;22.80;99.90;;;;;;4806234;29;20063;-64
2022/06/26 07:32:57;;;;;;;13.50;12.07;;;22.60;99.90;;;;;;4821859;29;20577;-68
2022/06/26 07:35:23;;;;;;;12.90;11.65;;;22.30;99.90;;;;;;4822574;29;20133;-65
2022/06/26 07:37:48;;;;;;;15.80;12.15;;;22.00;99.90;;;;;;4805823;29;20114;-66
2022/06/26 07:40:14;;;;;;;14.52;13.02;;;21.60;99.90;;;;;;4806349;29;20054;-65
2022/06/26 07:42:40;;;;;;;13.65;12.25;;;21.50;99.90;;;;;;4806123;29;20049;-64
2022/06/26 07:45:06;;;;;;;16.00;14.30;;;21.40;99.90;;;;;;4806264;29;20094;-65
2022/06/26 07:47:32;;;;;;;17.58;15.88;;;21.30;99.90;;;;;;4822459;29;20137;-65
2022/06/26 07:49:57;;;;;;;16.58;14.90;;;21.20;99.90;;;;;;4805826;29;20146;-65
2022/06/26 07:52:23;;;;;;;15.55;14.02;;;21.30;99.90;;;;;;4791314;29;20058;-65
2022/06/26 07:54:49;;;;;;;15.48;13.88;;;21.60;99.90;;;;;;4805893;29;20062;-66
2022/06/26 07:57:15;;;;;;;15.60;13.82;;;21.90;99.90;;;;;;4806207;29;20053;-65
2022/06/26 07:59:40;;;;;;;13.57;12.18;;;22.70;99.90;;;;;;4822189;29;20050;-66
2022/06/26 08:02:07;;;;;;;14.57;13.23;;;23.90;99.90;;;;;;4806265;29;20055;-65
2022/06/26 08:04:32;;;;;;;14.15;12.70;;;25.00;99.90;;;;;;4822164;29;20133;-65
2022/06/26 08:06:59;;;;;;;13.65;12.23;;;25.70;99.90;;;;;;4805283;29;20069;-65
2022/06/26 08:09:25;;;;;;;14.27;12.93;;;25.80;99.90;;;;;;4805803;29;20054;-66
2022/06/26 08:11:50;;;;;;;12.95;11.52;;;26.00;99.90;;;;;;4805652;29;20050;-63
2022/06/26 08:14:16;;;;;;;10.90;9.68;;;26.30;99.90;;;;;;4822297;29;20057;-67
2022/06/26 08:16:42;;;;;;;11.50;9.98;;;26.00;99.90;;;;;;4822092;29;20051;-72
2022/06/26 08:19:07;;;;;;;10.70;9.43;;;26.00;99.90;;;;;;4791171;29;20141;-66
2022/06/26 08:24:17;;;;;;;9.48;8.45;;;26.40;99.90;;;;;;4806186;29;20145;-66
2022/06/26 08:26:43;;;;;;;9.05;8.07;;;27.00;99.90;;;;;;4821877;29;20137;-68
2022/06/26 08:29:09;;;;;;;8.95;7.97;;;27.60;99.90;;;;;;4790824;29;20058;-65
2022/06/26 08:31:35;;;;;;;10.13;7.80;;;27.80;99.90;;;;;;4806067;29;20043;-67
2022/06/26 08:34:00;;;;;;;9.25;7.55;;;27.60;99.90;;;;;;4821794;29;20055;-65
2022/06/26 08:36:26;;;;;;;7.93;6.50;;;27.50;99.20;;;;;;4806226;29;20188;-67
2022/06/26 08:38:52;;;;;;;6.53;5.80;;;27.50;98.20;;;;;;4805403;29;20058;-65
2022/06/26 08:41:22;;;;;;;9.05;6.53;;;27.20;98.00;;;;;;4822317;29;20081;-66
2022/06/26 08:43:49;;;;;;;11.55;6.70;;;26.70;97.70;;;;;;4824795;29;20058;-66
2022/06/26 08:46:20;;;;;;;8.25;5.90;;;26.50;98.50;;;;;;4794192;29;20137;-65
2022/06/26 08:48:47;;;;;;;6.85;6.13;;;26.70;98.90;;;;;;4808785;29;20047;-70
2022/06/26 08:51:14;;;;;;;8.52;5.85;;;27.40;98.20;;;;;;4824997;29;20123;-65
2022/06/26 08:53:41;;;;;;;6.75;5.10;;;28.20;98.00;;;;;;4824826;29;20535;-65
2022/06/26 08:56:07;;;;;;;9.10;6.03;;;28.80;97.50;;;;;;4824807;29;20110;-66
2022/06/26 08:58:33;;;;;;;9.40;5.78;;;28.60;96.30;;;;;;4809098;29;20580;-64
2022/06/26 09:00:59;;;;;;;10.85;5.55;;;28.40;96.70;;;;;;4808716;29;20089;-66
2022/06/26 09:03:24;;;;;;;8.55;5.50;;;28.20;96.90;;;;;;4808986;29;20054;-68
2022/06/26 09:05:50;;;;;;;7.53;5.05;;;27.80;96.20;;;;;;4824806;29;20054;-64
2022/06/26 09:08:18;;;;;;;5.82;4.03;;;27.70;97.20;;;;;;4808742;29;20046;-64
2022/06/26 09:10:49;;;;;;;6.82;4.40;;;27.50;96.90;;;;;;4808706;29;20054;-65
2022/06/26 09:13:14;;;;;;;7.07;4.40;;;27.00;96.50;;;;;;4824662;29;20456;-65
2022/06/26 09:15:41;;;;;;;5.78;4.60;;;26.40;97.00;;;;;;4824816;29;20085;-64
2022/06/26 09:18:09;;;;;;;6.45;4.20;;;25.90;97.30;;;;;;4824447;29;20734;-65
2022/06/26 09:20:37;;;;;;;7.35;4.60;;;25.70;98.10;;;;;;4808285;29;20058;-64
2022/06/26 09:23:06;;;;;;;6.20;4.20;;;25.40;98.00;;;;;;4823927;29;20127;-64
2022/06/26 09:25:40;;;;;;;6.07;3.80;;;25.20;98.30;;;;;;4824193;29;20089;-65
2022/06/26 09:28:12;;;;;;;5.03;3.30;;;25.00;98.70;;;;;;4807680;29;20497;-65
2022/06/26 09:30:58;;;;;;;4.82;3.10;;;25.00;98.00;;;;;;4824473;29;20455;-65
2022/06/26 09:33:26;;;;;;;4.13;3.00;;;25.10;97.80;;;;;;4823907;29;20129;-68
2022/06/26 09:35:53;;;;;;;4.82;3.50;;;25.40;97.60;;;;;;4807455;29;20058;-69
2022/06/26 09:38:21;;;;;;;6.10;3.13;;;26.00;97.20;;;;;;4792638;29;20426;-64
2022/06/26 09:40:55;;;;;;;4.70;2.78;;;26.70;97.40;;;;;;4824152;29;20050;-65
2022/06/26 09:43:41;;;;;;;6.28;3.15;;;27.30;96.80;;;;;;4823752;29;20062;-65
2022/06/26 09:46:10;;;;;;;4.20;2.72;;;27.50;96.30;;;;;;4807411;29;20057;-65
2022/06/26 09:48:36;;;;;;;3.08;1.75;;;27.20;95.50;;;;;;4807894;29;20080;-65
2022/06/26 09:51:04;;;;;;;3.60;1.88;;;26.90;94.60;;;;;;4823102;29;20532;-65
2022/06/26 09:53:31;;;;;;;4.57;2.30;;;26.80;95.00;;;;;;4807162;29;20552;-66
2022/06/26 09:55:58;;;;;;;4.03;2.10;;;27.10;95.10;;;;;;4822399;29;20062;-65
2022/06/26 09:58:25;;;;;;;4.22;2.30;;;27.40;95.00;;;;;;4823624;29;20050;-67
2022/06/26 10:06:27;;;;;;;3.95;2.40;;;27.30;93.60;;;;;;4823844;29;20169;-66
2022/06/26 10:09:07;;;;;;;3.55;2.15;;;27.30;93.90;;;;;;4807703;29;20042;-65
2022/06/26 10:11:35;;;;;;;4.68;2.10;;;27.10;93.10;;;;;;4792724;29;20122;-65
2022/06/26 10:14:21;;;;;;;4.35;2.15;;;26.80;93.60;;;;;;4823205;29;20050;-64
2022/06/26 10:17:06;;;;;;;5.38;2.20;;;26.60;93.50;;;;;;4823561;29;20058;-65
2022/06/26 10:19:40;;;;;;;5.05;2.38;;;26.50;93.80;;;;;;4823611;29;20046;-65
2022/06/26 10:22:07;;;;;;;4.13;2.10;;;26.40;93.70;;;;;;4822978;29;20057;-65
2022/06/26 10:24:33;;;;;;;5.05;2.28;;;26.40;93.90;;;;;;4823369;29;20129;-64
2022/06/26 10:27:01;;;;;;;4.18;2.30;;;26.30;93.80;;;;;;4821013;29;20054;-67
2022/06/26 10:29:38;;;;;;;4.07;2.17;;;26.30;94.00;;;;;;4806486;29;20416;-65
2022/06/26 10:32:06;;;;;;;3.42;1.80;;;26.40;94.00;;;;;;4822725;29;20050;-64
2022/06/26 10:34:32;;;;;;;3.30;1.70;;;26.30;93.20;;;;;;4791752;29;20137;-65
2022/06/26 10:37:02;;;;;;;4.10;1.85;;;26.30;92.90;;;;;;4791971;29;20141;-68
2022/06/26 10:39:43;;;;;;;7.47;1.90;;;26.30;93.20;;;;;;4823254;29;20046;-66
2022/06/26 10:45:10;;;;;;;4.55;2.05;;;25.90;93.10;;;;;;4823032;29;20406;-69
2022/06/26 10:47:42;;;;;;;3.88;1.90;;;25.80;93.60;;;;;;4823277;29;20061;-65
2022/06/26 10:50:27;;;;;;;3.67;1.80;;;25.80;93.50;;;;;;4822833;29;20413;-65
2022/06/26 10:53:15;;;;;;;3.17;1.80;;;25.80;93.70;;;;;;4806824;29;20087;-65
2022/06/26 10:55:43;;;;;;;5.25;2.20;;;25.70;93.10;;;;;;4823106;29;20489;-63
2022/06/26 10:58:16;;;;;;;3.83;1.88;;;25.60;93.20;;;;;;4806449;29;20065;-64
2022/06/26 11:00:42;;;;;;;5.18;2.13;;;25.60;93.10;;;;;;4806977;29;20062;-65
2022/06/26 11:03:19;;;;;;;4.13;2.22;;;25.50;93.20;;;;;;4822885;29;20054;-64
2022/06/26 11:05:53;;;;;;;3.33;2.35;;;25.50;93.40;;;;;;4822320;29;20141;-63
2022/06/26 11:08:37;;;;;;;4.82;2.30;;;25.60;94.40;;;;;;4822517;29;20399;-65
2022/06/26 11:11:03;;;;;;;4.30;2.17;;;25.70;93.70;;;;;;4806604;29;20070;-68
2022/06/26 11:13:29;;;;;;;4.30;2.38;;;25.80;94.10;;;;;;4822664;29;20161;-66
2022/06/26 11:15:55;;;;;;;4.00;2.10;;;25.80;94.50;;;;;;4823071;29;20114;-64
2022/06/26 11:18:21;;;;;;;4.03;2.13;;;25.80;94.70;;;;;;4819515;29;20054;-63
2022/06/26 11:20:51;;;;;;;5.03;2.28;;;25.80;94.40;;;;;;4823001;29;20061;-63
2022/06/26 11:23:20;;;;;;;4.38;2.00;;;25.80;93.90;;;;;;4822622;29;20073;-64
2022/06/26 11:25:55;;;;;;;4.22;2.10;;;25.90;93.70;;;;;;4822824;29;20421;-64
2022/06/26 11:28:26;;;;;;;3.17;1.80;;;26.00;94.00;;;;;;4806115;29;20054;-64
2022/06/26 11:30:52;;;;;;;3.60;2.00;;;26.00;93.60;;;;;;4822808;29;20066;-67
2022/06/26 11:33:26;;;;;;;4.28;2.00;;;26.20;92.70;;;;;;4805889;29;20076;-64
2022/06/26 11:35:53;;;;;;;3.35;1.83;;;26.30;92.30;;;;;;4823058;29;20386;-66
2022/06/26 11:38:19;;;;;;;4.15;2.15;;;26.30;92.70;;;;;;4822415;29;20403;-63
2022/06/26 11:40:46;;;;;;;5.25;2.53;;;26.30;92.40;;;;;;4822703;29;20409;-63
2022/06/26 11:43:13;;;;;;;7.80;2.58;;;26.30;92.50;;;;;;4806056;29;20635;-63
2022/06/26 11:45:43;;;;;;;4.13;2.20;;;26.30;92.80;;;;;;4822402;29;20062;-64
2022/06/26 11:48:18;;;;;;;5.85;2.25;;;26.20;93.30;;;;;;4791433;29;20114;-68
2022/06/26 11:50:49;;;;;;;5.00;1.95;;;26.20;93.50;;;;;;4822705;29;20055;-65
2022/06/26 11:53:20;;;;;;;5.38;2.28;;;26.10;93.00;;;;;;4822149;29;20137;-65
2022/06/26 11:55:53;;;;;;;5.00;2.28;;;26.10;92.40;;;;;;4822665;29;20404;-63
2022/06/26 11:58:21;;;;;;;4.70;2.15;;;26.00;92.60;;;;;;4791148;29;20115;-65
2022/06/26 12:00:47;;;;;;;3.45;1.92;;;26.10;93.00;;;;;;4791428;29;20057;-65
2022/06/26 12:03:14;;;;;;;5.03;2.17;;;26.10;92.80;;;;;;4822206;29;20054;-65
2022/06/26 12:05:43;;;;;;;4.97;1.90;;;26.00;92.80;;;;;;4822514;29;20093;-66
2022/06/26 12:08:17;;;;;;;5.45;1.98;;;26.00;92.90;;;;;;4822563;29;20054;-67
2022/06/26 12:10:47;;;;;;;4.03;1.83;;;26.00;93.20;;;;;;4805854;29;20101;-65
2022/06/26 12:13:30;;;;;;;3.92;1.83;;;26.00;92.90;;;;;;4821782;29;20050;-66
2022/06/26 12:16:07;;;;;;;3.95;1.90;;;26.00;92.20;;;;;;4805969;29;20050;-67
2022/06/26 12:18:39;;;;;;;3.58;1.70;;;25.90;92.50;;;;;;4824660;29;20667;-65
2022/06/26 12:21:18;;;;;;;2.20;1.60;;;25.90;92.90;;;;;;4825600;29;20093;-65
2022/06/26 12:23:46;;;;;;;4.07;2.00;;;25.80;92.30;;;;;;4824299;29;20061;-66
2022/06/26 12:26:15;;;;;;;3.72;1.83;;;25.80;93.10;;;;;;4824254;29;20507;-69
2022/06/26 12:28:52;;;;;;;5.47;2.13;;;25.90;93.10;;;;;;4809007;29;20098;-66
2022/06/26 12:31:21;;;;;;;4.05;1.98;;;25.90;93.00;;;;;;4825181;29;20050;-67
2022/06/26 12:33:48;;;;;;;5.95;2.22;;;25.80;93.60;;;;;;4809214;29;20058;-66
2022/06/26 12:36:15;;;;;;;5.93;2.20;;;25.90;93.60;;;;;;4824879;29;20592;-69
2022/06/26 12:38:42;;;;;;;4.82;2.15;;;25.90;93.00;;;;;;4809027;29;20069;-65
2022/06/26 12:41:16;;;;;;;5.55;2.30;;;26.00;93.80;;;;;;4794080;29;20064;-65
2022/06/26 12:43:48;;;;;;;4.15;2.10;;;26.00;93.30;;;;;;4825489;29;20480;-64
2022/06/26 12:46:14;;;;;;;3.97;1.80;;;26.10;92.70;;;;;;4825065;29;20047;-68
2022/06/26 12:48:40;;;;;;;3.88;1.90;;;26.00;92.80;;;;;;4808997;29;20414;-65
2022/06/26 12:51:06;;;;;;;5.13;2.20;;;26.00;92.60;;;;;;4825077;29;20050;-64
2022/06/26 12:53:32;;;;;;;4.97;2.00;;;25.80;92.60;;;;;;4808745;29;20050;-65
2022/06/26 12:55:59;;;;;;;4.28;1.70;;;25.90;92.40;;;;;;4808905;29;20054;-66
2022/06/26 12:58:25;;;;;;;3.83;2.00;;;25.80;92.80;;;;;;4808691;29;20095;-64